createdAt,value
2022-08-12T00:01:06.616Z,25.06
2022-08-12T00:03:53.055Z,24.93
2022-08-12T00:06:40.605Z,24.87
2022-08-12T00:09:27.427Z,24.81
2022-08-12T00:12:13.812Z,24.73
2022-08-12T00:15:02.220Z,24.79
2022-08-12T00:17:49.225Z,24.93
2022-08-12T00:20:35.540Z,24.88
2022-08-12T00:23:23.577Z,24.92
2022-08-12T00:26:23.208Z,24.90
2022-08-12T00:29:12.939Z,24.90
2022-08-12T00:32:00.441Z,24.81
2022-08-12T00:34:51.646Z,24.87
2022-08-12T00:37:39.948Z,24.91
2022-08-12T00:40:29.080Z,24.87
2022-08-12T00:42:58.115Z,24.82
2022-08-12T00:45:26.620Z,24.77
2022-08-12T00:47:54.249Z,24.78
2022-08-12T00:50:22.558Z,24.78
2022-08-12T00:52:51.963Z,24.62
2022-08-12T00:55:19.969Z,24.60
2022-08-12T00:57:50.093Z,24.60
2022-08-12T01:00:23.104Z,24.65
2022-08-12T01:02:53.546Z,24.62
2022-08-12T01:05:41.621Z,24.47
2022-08-12T01:08:28.092Z,24.36
2022-08-12T01:11:14.974Z,24.45
2022-08-12T01:13:52.641Z,24.46
2022-08-12T01:16:24.243Z,24.27
2022-08-12T01:18:55.056Z,24.28
2022-08-12T01:21:41.909Z,24.45
2022-08-12T01:24:34.090Z,24.59
2022-08-12T01:27:03.380Z,24.62
2022-08-12T01:29:39.012Z,24.59
2022-08-12T01:32:08.905Z,24.44
2022-08-12T01:34:38.589Z,24.50
2022-08-12T01:37:08.796Z,24.36
2022-08-12T01:40:35.438Z,24.30
2022-08-12T01:42:37.995Z,24.24
2022-08-12T01:45:05.581Z,24.18
2022-08-12T01:47:47.184Z,24.25
2022-08-12T01:50:22.151Z,24.34
2022-08-12T01:53:06.548Z,24.32
2022-08-12T01:55:37.207Z,24.34
2022-08-12T01:58:20.361Z,24.26
2022-08-12T02:00:55.278Z,24.21
2022-08-12T02:04:13.653Z,24.23
2022-08-12T02:07:20.917Z,24.21
2022-08-12T02:10:50.443Z,24.18
2022-08-12T02:13:33.175Z,24.09
2022-08-12T02:16:36.328Z,24.13
2022-08-12T02:19:40.429Z,24.01
2022-08-12T02:22:20.524Z,24.01
2022-08-12T02:24:50.276Z,23.91
2022-08-12T02:27:19.582Z,23.79
2022-08-12T02:29:48.262Z,23.68
2022-08-12T02:32:16.329Z,23.62
2022-08-12T02:34:44.729Z,23.56
2022-08-12T02:37:15.582Z,23.49
2022-08-12T02:39:49.108Z,23.47
2022-08-12T02:42:19.398Z,23.54
2022-08-12T02:44:51.806Z,23.28
2022-08-12T02:48:00.148Z,23.26
2022-08-12T02:50:11.019Z,23.38
2022-08-12T02:52:38.986Z,23.27
2022-08-12T02:55:34.289Z,23.30
2022-08-12T02:58:12.353Z,23.18
2022-08-12T03:00:43.764Z,23.23
2022-08-12T03:03:13.793Z,23.33
2022-08-12T03:05:49.124Z,23.24
2022-08-12T03:08:31.837Z,23.14
2022-08-12T03:11:06.187Z,23.13
2022-08-12T03:13:42.496Z,23.10
2022-08-12T03:16:10.634Z,23.21
2022-08-12T03:18:45.558Z,23.23
2022-08-12T03:21:16.869Z,23.31
2022-08-12T03:23:46.602Z,23.33
2022-08-12T03:26:14.820Z,23.26
2022-08-12T03:28:51.947Z,23.28
2022-08-12T03:31:22.994Z,23.29
2022-08-12T03:34:01.503Z,23.27
2022-08-12T03:36:36.060Z,23.25
2022-08-12T03:39:18.955Z,23.26
2022-08-12T03:42:06.144Z,23.17
2022-08-12T03:45:31.943Z,23.21
2022-08-12T03:48:25.762Z,23.23
2022-08-12T03:51:13.361Z,23.09
2022-08-12T03:54:00.425Z,23.02
2022-08-12T03:56:46.649Z,23.08
2022-08-12T03:59:33.159Z,22.99
2022-08-12T04:02:00.742Z,23.08
2022-08-12T04:04:34.258Z,23.11
2022-08-12T04:07:10.664Z,23.11
2022-08-12T04:09:40.832Z,23.10
2022-08-12T04:12:32.399Z,23.17
2022-08-12T04:15:02.206Z,23.21
2022-08-12T04:17:31.574Z,23.22
2022-08-12T04:19:59.628Z,23.28
2022-08-12T04:22:29.844Z,23.22
2022-08-12T04:25:01.188Z,23.16
2022-08-12T04:27:31.672Z,23.22
2022-08-12T04:30:30.946Z,23.27
2022-08-12T04:32:50.149Z,23.22
2022-08-12T04:35:18.402Z,23.19
2022-08-12T04:37:58.930Z,23.35
2022-08-12T04:40:31.072Z,23.40
2022-08-12T04:43:01.071Z,23.47
2022-08-12T04:45:34.619Z,23.57
2022-08-12T04:48:02.780Z,23.57
2022-08-12T04:50:36.116Z,23.77
2022-08-12T04:53:06.272Z,23.77
2022-08-12T04:55:34.891Z,23.74
2022-08-12T04:58:02.383Z,23.87
2022-08-12T05:00:29.882Z,24.01
2022-08-12T05:02:57.775Z,24.60
2022-08-12T05:05:25.407Z,26.19
2022-08-12T05:07:54.699Z,26.68
2022-08-12T05:10:33.645Z,26.75
2022-08-12T05:13:09.846Z,26.32
2022-08-12T05:16:02.423Z,25.73
2022-08-12T05:18:29.076Z,25.43
2022-08-12T05:20:59.133Z,25.42
2022-08-12T05:23:27.309Z,25.28
2022-08-12T05:25:58.238Z,25.24
2022-08-12T05:28:27.260Z,25.10
2022-08-12T05:30:56.182Z,25.08
2022-08-12T05:33:33.274Z,25.25
2022-08-12T05:36:01.074Z,25.22
2022-08-12T05:38:47.138Z,25.52
2022-08-12T05:41:20.939Z,25.86
2022-08-12T05:43:59.961Z,25.76
2022-08-12T05:46:29.441Z,25.33
2022-08-12T05:48:59.024Z,25.60
2022-08-12T05:51:39.699Z,25.53
2022-08-12T05:54:11.018Z,25.54
2022-08-12T05:56:40.775Z,25.44
2022-08-12T05:59:12.193Z,25.59
2022-08-12T06:02:09.138Z,25.58
2022-08-12T06:04:30.173Z,25.53
2022-08-12T06:06:57.712Z,25.52
2022-08-12T06:09:27.679Z,25.46
2022-08-12T06:12:05.593Z,25.78
2022-08-12T06:14:39.038Z,25.60
2022-08-12T06:17:10.342Z,25.28
2022-08-12T06:20:25.895Z,25.00
2022-08-12T06:22:26.913Z,24.84
2022-08-12T06:24:54.465Z,24.21
2022-08-12T06:27:21.937Z,24.76
2022-08-12T06:30:09.662Z,24.62
2022-08-12T06:32:42.848Z,24.33
2022-08-12T06:35:48.819Z,24.39
2022-08-12T06:38:19.305Z,24.26
2022-08-12T06:41:07.522Z,24.27
2022-08-12T06:44:04.491Z,24.34
2022-08-12T06:46:24.113Z,24.33
2022-08-12T06:48:56.909Z,24.00
2022-08-12T06:51:26.835Z,24.15
2022-08-12T06:53:55.947Z,24.57
2022-08-12T06:56:39.769Z,24.03
2022-08-12T06:59:14.177Z,24.29
2022-08-12T07:01:51.034Z,24.46
2022-08-12T07:04:37.322Z,24.34
2022-08-12T07:07:09.918Z,24.64
2022-08-12T07:10:06.511Z,25.04
2022-08-12T07:12:28.242Z,24.99
2022-08-12T07:14:57.864Z,25.10
2022-08-12T07:17:26.173Z,25.02
2022-08-12T07:19:55.500Z,24.73
2022-08-12T07:22:25.937Z,25.05
2022-08-12T07:25:13.366Z,25.04
2022-08-12T07:27:42.745Z,24.80
2022-08-12T07:30:11.054Z,25.30
2022-08-12T07:32:38.678Z,24.91
2022-08-12T07:35:06.940Z,24.80
2022-08-12T07:37:40.628Z,24.89
2022-08-12T07:40:11.807Z,25.05
2022-08-12T07:42:41.087Z,25.00
2022-08-12T07:45:09.513Z,24.98
2022-08-12T07:47:37.926Z,25.16
2022-08-12T07:50:09.295Z,25.43
2022-08-12T07:52:38.698Z,25.43
2022-08-12T07:55:07.085Z,25.46
2022-08-12T07:57:35.756Z,25.36
2022-08-12T08:00:06.180Z,25.60
2022-08-12T08:02:37.078Z,25.37
2022-08-12T08:05:06.376Z,25.48
2022-08-12T08:07:34.012Z,25.74
2022-08-12T08:10:03.981Z,25.73
2022-08-12T08:12:50.074Z,25.79
2022-08-12T08:15:17.678Z,26.27
2022-08-12T08:18:02.636Z,26.29
2022-08-12T08:20:41.356Z,26.33
2022-08-12T08:23:12.481Z,26.16
2022-08-12T08:25:41.413Z,26.26
2022-08-12T08:28:13.499Z,26.18
2022-08-12T08:30:43.937Z,26.12
2022-08-12T08:33:22.821Z,26.27
2022-08-12T08:36:00.831Z,26.61
2022-08-12T08:38:32.737Z,27.09
2022-08-12T08:42:15.750Z,27.01
2022-08-12T08:44:12.311Z,26.60
2022-08-12T08:46:40.790Z,26.48
2022-08-12T08:49:08.600Z,26.82
2022-08-12T08:51:37.099Z,27.16
2022-08-12T08:54:06.932Z,26.88
2022-08-12T08:56:42.889Z,26.89
2022-08-12T08:59:12.104Z,27.15
2022-08-12T09:01:40.908Z,27.34
2022-08-12T09:05:08.784Z,27.42
2022-08-12T09:07:18.075Z,27.36
2022-08-12T09:10:03.733Z,27.25
2022-08-12T09:15:42.499Z,27.92
2022-08-12T09:21:12.332Z,27.83
2022-08-12T09:24:00.418Z,28.18
2022-08-12T09:26:31.184Z,28.42
2022-08-12T09:29:00.489Z,28.15
2022-08-12T09:32:07.437Z,28.45
2022-08-12T09:34:28.084Z,28.32
2022-08-12T09:37:18.747Z,28.96
2022-08-12T09:40:03.264Z,29.21
2022-08-12T09:46:06.942Z,28.60
2022-08-12T09:48:35.183Z,28.78
2022-08-12T09:51:16.539Z,28.98
2022-08-12T09:53:45.645Z,28.65
2022-08-12T09:56:58.097Z,28.79
2022-08-12T09:59:10.021Z,28.92
2022-08-12T10:02:42.136Z,28.75
2022-08-12T10:04:30.244Z,29.01
2022-08-12T10:06:58.142Z,29.08
2022-08-12T10:09:28.856Z,29.52
2022-08-12T10:12:53.486Z,29.90
2022-08-12T10:16:00.885Z,29.87
2022-08-12T10:18:08.152Z,30.20
2022-08-12T10:20:35.756Z,30.21
2022-08-12T10:23:03.615Z,30.30
2022-08-12T10:26:36.197Z,30.68
2022-08-12T10:29:02.726Z,30.06
2022-08-12T10:32:19.781Z,30.57
2022-08-12T10:34:26.483Z,30.34
2022-08-12T10:36:58.759Z,30.25
2022-08-12T10:40:07.071Z,30.06
2022-08-12T10:42:46.535Z,30.38
2022-08-12T10:45:18.037Z,30.79
2022-08-12T10:48:19.007Z,30.79
2022-08-12T10:51:01.837Z,30.26
2022-08-12T10:53:44.007Z,30.66
2022-08-12T10:56:17.828Z,30.58
2022-08-12T10:58:47.236Z,31.10
2022-08-12T11:01:49.880Z,31.17
2022-08-12T11:04:24.119Z,31.28
2022-08-12T11:07:06.727Z,31.06
2022-08-12T11:09:59.847Z,30.36
2022-08-12T11:12:55.792Z,29.89
2022-08-12T11:15:33.249Z,29.60
2022-08-12T11:18:12.299Z,29.92
2022-08-12T11:20:48.254Z,29.93
2022-08-12T11:23:24.970Z,30.33
2022-08-12T11:26:06.704Z,30.06
2022-08-12T11:28:37.010Z,30.35
2022-08-12T11:31:09.732Z,30.07
2022-08-12T11:34:06.191Z,29.59
2022-08-12T11:36:26.077Z,29.29
2022-08-12T11:38:55.174Z,29.41
2022-08-12T11:41:31.584Z,29.24
2022-08-12T11:44:24.075Z,28.75
2022-08-12T11:46:51.356Z,29.13
2022-08-12T11:49:31.719Z,29.36
2022-08-12T11:52:01.864Z,29.07
2022-08-12T11:54:30.495Z,29.44
2022-08-12T11:57:01.949Z,29.43
2022-08-12T12:02:21.489Z,29.51
2022-08-12T12:04:52.888Z,29.31
2022-08-12T12:07:33.984Z,29.58
2022-08-12T12:10:13.680Z,29.88
2022-08-12T12:12:49.736Z,29.79
2022-08-12T12:15:24.786Z,29.08
2022-08-12T12:17:55.770Z,28.86
2022-08-12T12:20:25.985Z,29.21
2022-08-12T12:22:55.367Z,29.64
2022-08-12T12:26:06.482Z,29.85
2022-08-12T12:28:36.931Z,29.26
2022-08-12T12:30:58.523Z,29.26
2022-08-12T12:33:57.534Z,29.34
2022-08-12T12:36:22.141Z,29.58
2022-08-12T12:38:52.173Z,29.45
2022-08-12T12:41:19.668Z,28.88
2022-08-12T12:43:56.506Z,29.97
2022-08-12T12:46:32.401Z,29.69
2022-08-12T12:48:59.921Z,29.78
2022-08-12T12:52:06.766Z,29.90
2022-08-12T12:54:18.655Z,30.02
2022-08-12T12:56:49.981Z,30.12
2022-08-12T12:59:55.078Z,30.02
2022-08-12T13:02:08.624Z,29.68
2022-08-12T13:04:37.879Z,29.90
2022-08-12T13:07:06.711Z,29.66
2022-08-12T13:09:36.309Z,29.80
2022-08-12T13:12:08.988Z,30.13
2022-08-12T13:14:39.691Z,30.08
2022-08-12T13:17:14.552Z,30.24
2022-08-12T13:19:46.584Z,30.21
2022-08-12T13:22:20.488Z,30.04
2022-08-12T13:24:54.707Z,30.03
2022-08-12T13:27:35.457Z,30.28
2022-08-12T13:30:11.030Z,30.20
2022-08-12T13:32:42.057Z,30.49
2022-08-12T13:35:20.188Z,30.62
2022-08-12T13:37:59.379Z,30.03
2022-08-12T13:40:33.195Z,30.60
2022-08-12T13:43:02.409Z,30.48
2022-08-12T13:45:34.843Z,30.34
2022-08-12T13:48:04.582Z,30.07
2022-08-12T13:50:40.295Z,30.35
2022-08-12T13:53:24.515Z,29.82
2022-08-12T13:56:01.665Z,29.87
2022-08-12T13:58:32.877Z,30.12
2022-08-12T14:01:06.338Z,30.22
2022-08-12T14:03:49.931Z,30.20
2022-08-12T14:06:19.013Z,30.51
2022-08-12T14:08:49.802Z,30.30
2022-08-12T14:11:19.150Z,30.65
2022-08-12T14:14:06.197Z,30.87
2022-08-12T14:16:48.284Z,30.84
2022-08-12T14:19:22.862Z,30.49
2022-08-12T14:22:00.804Z,30.35
2022-08-12T14:24:40.571Z,30.89
2022-08-12T14:27:12.453Z,30.29
2022-08-12T14:30:04.512Z,30.66
2022-08-12T14:32:36.685Z,30.33
2022-08-12T14:35:09.521Z,30.68
2022-08-12T14:37:56.933Z,31.06
2022-08-12T14:40:28.615Z,30.75
2022-08-12T14:42:58.277Z,31.15
2022-08-12T14:45:45.400Z,30.76
2022-08-12T14:48:18.532Z,30.96
2022-08-12T14:51:02.583Z,30.75
2022-08-12T14:54:52.899Z,30.76
2022-08-12T14:59:57.475Z,30.71
2022-08-12T15:02:20.913Z,31.13
2022-08-12T15:05:03.614Z,30.93
2022-08-12T15:07:33.787Z,31.15
2022-08-12T15:10:25.395Z,30.94
2022-08-12T15:13:07.261Z,31.24
2022-08-12T15:15:43.785Z,31.03
2022-08-12T15:18:21.239Z,30.52
2022-08-12T15:20:54.574Z,30.63
2022-08-12T15:23:24.478Z,30.55
2022-08-12T15:26:02.498Z,30.98
2022-08-12T15:28:35.510Z,30.87
2022-08-12T15:31:21.466Z,30.49
2022-08-12T15:33:53.372Z,30.73
2022-08-12T15:36:53.883Z,30.98
2022-08-12T15:39:16.963Z,30.94
2022-08-12T15:41:49.567Z,30.96
2022-08-12T15:44:37.965Z,30.89
2022-08-12T15:47:07.119Z,30.94
2022-08-12T15:49:54.214Z,30.63
2022-08-12T15:52:28.119Z,30.49
2022-08-12T15:55:05.076Z,30.63
2022-08-12T15:57:41.548Z,30.93
2022-08-12T16:00:31.734Z,30.80
2022-08-12T16:02:59.615Z,30.46
2022-08-12T16:06:13.249Z,30.96
2022-08-12T16:08:27.090Z,30.32
2022-08-12T16:10:56.887Z,31.03
2022-08-12T16:13:34.407Z,30.98
2022-08-12T16:16:22.922Z,31.21
2022-08-12T16:18:59.527Z,31.43
2022-08-12T16:21:51.501Z,31.05
2022-08-12T16:24:18.789Z,31.12
2022-08-12T16:26:51.552Z,30.62
2022-08-12T16:29:53.504Z,30.46
2022-08-12T16:32:21.118Z,30.26
2022-08-12T16:34:55.436Z,29.83
2022-08-12T16:37:32.518Z,29.94
2022-08-12T16:40:06.288Z,29.27
2022-08-12T16:42:54.062Z,29.64
2022-08-12T16:46:04.239Z,29.48
2022-08-12T16:48:34.145Z,29.40
2022-08-12T16:51:05.916Z,29.29
2022-08-12T16:53:43.961Z,29.40
2022-08-12T16:56:15.363Z,29.49
2022-08-12T16:58:43.286Z,28.92
2022-08-12T17:01:14.594Z,29.28
2022-08-12T17:03:51.800Z,29.43
2022-08-12T17:06:27.679Z,29.72
2022-08-12T17:09:03.484Z,29.63
2022-08-12T17:11:39.385Z,29.35
2022-08-12T17:14:11.775Z,29.42
2022-08-12T17:16:40.395Z,29.84
2022-08-12T17:19:08.914Z,29.38
2022-08-12T17:21:40.683Z,29.32
2022-08-12T17:24:22.365Z,29.62
2022-08-12T17:26:57.542Z,29.65
2022-08-12T17:30:01.283Z,29.63
2022-08-12T17:32:14.438Z,29.81
2022-08-12T17:35:01.244Z,29.66
2022-08-12T17:37:29.068Z,29.59
2022-08-12T17:40:15.777Z,29.91
2022-08-12T17:42:47.691Z,29.66
2022-08-12T17:45:19.895Z,30.07
2022-08-12T17:48:04.501Z,29.93
2022-08-12T17:50:45.288Z,29.99
2022-08-12T17:53:18.990Z,30.15
2022-08-12T17:55:50.260Z,30.14
2022-08-12T17:58:35.798Z,30.13
2022-08-12T18:01:11.245Z,29.96
2022-08-12T18:04:04.304Z,30.08
2022-08-12T18:06:28.571Z,29.89
2022-08-12T18:08:59.918Z,30.06
2022-08-12T18:12:12.904Z,30.00
2022-08-12T18:14:41.650Z,29.97
2022-08-12T18:17:16.267Z,29.91
2022-08-12T18:20:06.994Z,29.79
2022-08-12T18:22:33.193Z,29.76
2022-08-12T18:25:04.764Z,29.69
2022-08-12T18:27:44.325Z,29.62
2022-08-12T18:30:20.912Z,29.29
2022-08-12T18:33:04.975Z,29.32
2022-08-12T18:35:47.791Z,29.41
2022-08-12T18:38:22.567Z,29.30
2022-08-12T18:41:22.013Z,29.01
2022-08-12T18:44:00.056Z,28.96
2022-08-12T18:46:47.089Z,28.87
2022-08-12T18:49:24.836Z,28.81
2022-08-12T18:52:03.796Z,28.67
2022-08-12T18:54:48.792Z,28.73
2022-08-12T18:57:45.943Z,28.71
2022-08-12T19:00:21.409Z,28.64
2022-08-12T19:02:51.981Z,28.59
2022-08-12T19:05:45.830Z,28.59
2022-08-12T19:08:17.833Z,28.53
2022-08-12T19:10:48.061Z,28.63
2022-08-12T19:13:39.603Z,28.60
2022-08-12T19:16:12.474Z,28.25
2022-08-12T19:18:44.555Z,28.34
2022-08-12T19:21:16.954Z,28.08
2022-08-12T19:24:08.696Z,27.96
2022-08-12T19:26:37.399Z,27.73
2022-08-12T19:29:07.635Z,27.87
2022-08-12T19:31:55.788Z,27.91
2022-08-12T19:36:08.086Z,27.83
2022-08-12T19:38:06.721Z,27.51
2022-08-12T19:40:34.596Z,27.67
2022-08-12T19:43:20.943Z,27.68
2022-08-12T19:45:56.301Z,27.54
2022-08-12T19:48:30.357Z,27.51
2022-08-12T19:50:59.429Z,27.56
2022-08-12T19:53:56.618Z,27.64
2022-08-12T19:56:25.201Z,27.71
2022-08-12T19:58:54.272Z,27.81
2022-08-12T20:01:21.788Z,27.73
2022-08-12T20:03:59.102Z,27.62
2022-08-12T20:06:33.890Z,27.40
2022-08-12T20:09:04.204Z,27.28
2022-08-12T20:12:11.726Z,27.33
2022-08-12T20:14:19.851Z,27.33
2022-08-12T20:17:01.813Z,27.35
2022-08-12T20:20:01.157Z,27.29
2022-08-12T20:22:24.678Z,27.25
2022-08-12T20:25:07.220Z,27.06
2022-08-12T20:28:04.034Z,27.00
2022-08-12T20:30:37.864Z,26.80
2022-08-12T20:33:17.347Z,26.74
2022-08-12T20:36:14.130Z,26.62
2022-08-12T20:38:39.602Z,26.63
2022-08-12T20:41:17.375Z,26.64
2022-08-12T20:43:49.451Z,26.53
2022-08-12T20:46:21.282Z,26.69
2022-08-12T20:48:55.085Z,26.65
2022-08-12T20:51:27.655Z,26.58
2022-08-12T20:53:59.077Z,26.60
2022-08-12T20:56:33.033Z,26.52
2022-08-12T20:59:14.837Z,26.47
2022-08-12T21:01:48.905Z,26.46
2022-08-12T21:04:36.508Z,26.36
2022-08-12T21:07:10.351Z,26.35
2022-08-12T21:09:44.352Z,26.31
2022-08-12T21:12:37.440Z,26.44
2022-08-12T21:15:22.998Z,26.39
2022-08-12T21:18:09.838Z,26.28
2022-08-12T21:20:44.359Z,26.15
2022-08-12T21:23:13.814Z,25.82
2022-08-12T21:25:45.014Z,25.85
2022-08-12T21:28:14.807Z,25.98
2022-08-12T21:31:10.962Z,25.84
2022-08-12T21:33:32.061Z,25.98
2022-08-12T21:36:32.062Z,25.91
2022-08-12T21:39:20.560Z,25.86
2022-08-12T21:41:51.915Z,25.86
2022-08-12T21:44:24.672Z,25.96
2022-08-12T21:47:21.348Z,25.88
2022-08-12T21:50:06.443Z,26.14
2022-08-12T21:52:36.900Z,26.06
2022-08-12T21:55:08.578Z,26.08
2022-08-12T21:57:54.437Z,25.93
2022-08-12T22:00:34.358Z,25.99
2022-08-12T22:04:01.723Z,26.25
2022-08-12T22:06:26.454Z,26.08
2022-08-12T22:09:03.893Z,26.16
2022-08-12T22:11:42.052Z,26.32
2022-08-12T22:14:21.453Z,26.34
2022-08-12T22:16:52.316Z,26.43
2022-08-12T22:19:21.514Z,26.47
2022-08-12T22:21:53.537Z,26.52
2022-08-12T22:24:26.765Z,26.36
2022-08-12T22:27:18.002Z,26.24
2022-08-12T22:30:16.551Z,26.24
2022-08-12T22:32:50.787Z,26.16
2022-08-12T22:35:55.551Z,26.07
2022-08-12T22:38:21.131Z,25.85
2022-08-12T22:40:50.613Z,26.03
2022-08-12T22:43:59.134Z,26.16
2022-08-12T22:46:53.104Z,26.11
2022-08-12T22:49:36.782Z,26.16
2022-08-12T22:52:23.211Z,26.06
2022-08-12T22:55:03.733Z,25.87
2022-08-12T22:57:53.949Z,25.87
2022-08-12T23:00:24.539Z,25.66
2022-08-12T23:02:59.375Z,25.92
2022-08-12T23:05:57.611Z,25.96
2022-08-12T23:08:22.311Z,26.16
2022-08-12T23:10:50.419Z,26.08
2022-08-12T23:13:43.101Z,25.62
2022-08-12T23:16:18.326Z,25.80
2022-08-12T23:19:01.643Z,25.76
2022-08-12T23:22:06.569Z,26.11
2022-08-12T23:24:35.131Z,26.34
2022-08-12T23:27:22.455Z,26.22
2022-08-12T23:30:05.866Z,26.11
2022-08-12T23:32:37.961Z,26.42
2022-08-12T23:35:07.198Z,26.70
2022-08-12T23:37:46.511Z,26.77
2022-08-12T23:40:17.716Z,26.78
2022-08-12T23:42:45.877Z,26.64
2022-08-12T23:45:20.208Z,26.79
2022-08-12T23:47:58.980Z,26.70
2022-08-12T23:50:34.471Z,26.62
2022-08-12T23:53:17.014Z,26.55
2022-08-12T23:55:50.094Z,26.37
2022-08-12T23:58:26.121Z,26.54
